Aurora, Texas
Current Conditions -  °F | °C
As of 12:53 AM on Thursday 18 Dec 2014 (Local Time) from KAFW Reporting Station
Haze Haze  
Wind Chill: 37°   Ceiling: 400
Heat Index: 41°   Visibility: 6mi
Dew Point: 40°   Wind: 6mph
Humidity: 96%   Direction: 100°E
Pressure: 30.13"   Gusts: NA
Location:  33.0495°N, 97.45°W
Report Text: KAFW 180653Z 10005KT 6SM BR OVC004 05/04 A3013 RMK AO2 DZE42 SLP209 CB DSIPTD P0000 T00500044
Loading
Personal Weather Stations






























Interactive Weather Map New forecast layout! Learn more

10-Day Weather Forecast

Advertisements
Track Severe Weather on mobile